Efa — YJWE9 — position and weather

sailwx.info

Track history (hours):
 
Tides and Currents Weather Stations Pressure Air Temp Water Temp Dewpoint Dewpoint Depression Visibility Wind Speed Wind Dir Waves Ship Positions

Efa

Last reported at 2018-Jun-22 18:34 UTC. Time now 2018-Jun-23 02:54 UTC.
Position N 45°25' E 036°41'.

; draft 2.4 m.

MMSI: 577373000.

Date/timePositionNaut miles runAvg speedWind from/ knotsBaromVisibWave heightAir tempDewpointWater temp
2018-Jun-22 18:34N 45°25' E 036°41'1 8.2
2018-Jun-22 18:24N 45°24' E 036°41'3 7.4
2018-Jun-22 18:00N 45°21' E 036°39'12 3.5
2018-Jun-22 14:39N 45°11' E 036°29'0 0.0
2018-Jun-22 14:30N 45°11' E 036°29'0 0.0
2018-Jun-22 14:00N 45°11' E 036°29'0 0.0
2018-Jun-22 13:30N 45°11' E 036°29'2 0.9
2018-Jun-22 11:21N 45°13' E 036°28'1 0.3
2018-Jun-22 07:11N 45°14' E 036°30'1 2.9
2018-Jun-22 06:58N 45°13' E 036°30'22 7.7
2018-Jun-22 04:05N 44°51' E 036°32'2 7.5
2018-Jun-22 03:52N 44°50' E 036°33'81 7.9
2018-Jun-21 17:41N 43°30' E 036°54'2 8.1
2018-Jun-21 17:24N 43°28' E 036°54'  
2018-Jun-14 05:59N 44°60' E 032°32'8 7.6
2018-Jun-14 04:57N 45°05' E 032°25'3 7.6
2018-Jun-14 04:30N 45°08' E 032°21'4 7.7
2018-Jun-14 04:00N 45°11' E 032°18'4 7.6
2018-Jun-14 03:30N 45°14' E 032°14'4 7.6
2018-Jun-14 03:00N 45°16' E 032°10'4 7.5
2018-Jun-14 02:30N 45°19' E 032°07'4 7.4
2018-Jun-14 01:59N 45°22' E 032°03'4 7.2
2018-Jun-14 01:30N 45°25' E 031°60'4 7.0
2018-Jun-14 00:59N 45°27' E 031°56'4 7.6
2018-Jun-14 00:30N 45°29' E 031°52'4 7.5
2018-Jun-14 00:00N 45°31' E 031°47'4 7.5
2018-Jun-13 23:30N 45°33' E 031°43'4 7.6
2018-Jun-13 23:00N 45°35' E 031°38'4 7.6
2018-Jun-13 22:30N 45°37' E 031°33'4 7.6
2018-Jun-13 22:00N 45°39' E 031°29'4 7.6
2018-Jun-13 21:30N 45°40' E 031°24'4 7.7
2018-Jun-13 21:00N 45°42' E 031°19'4 7.6
2018-Jun-13 20:30N 45°44' E 031°14'4 7.7
2018-Jun-13 19:59N 45°46' E 031°09'4 7.7
2018-Jun-13 19:30N 45°48' E 031°05'4 7.7
2018-Jun-13 19:00N 45°50' E 031°00'4 7.8
2018-Jun-13 18:30N 45°53' E 030°56'6 7.8
2018-Jun-13 17:43N 45°56' E 030°48'2 7.6
2018-Jun-13 17:30N 45°57' E 030°46'4 7.6
2018-Jun-13 17:00N 45°59' E 030°42'4 7.3
2018-Jun-13 16:25N 46°02' E 030°37'3 7.1
2018-Jun-13 16:00N 46°03' E 030°33'4 6.6
2018-Jun-13 15:28N 46°05' E 030°29'  
Track history (hours):
 
Tides and Currents Weather Stations Pressure Air Temp Water Temp Dewpoint Dewpoint Depression Visibility Wind Speed Wind Dir Waves Ship Positions

Efa

Last reported at 2018-Jun-22 18:34 UTC. Time now 2018-Jun-23 02:54 UTC.
Position N 45°25' E 036°41'.

; draft 2.4 m.

MMSI: 577373000.

Date/timePositionNaut miles runAvg speedWind from/ knotsBaromVisibWave heightAir tempDewpointWater temp
2018-Jun-22 18:34N 45°25' E 036°41'1 8.2
2018-Jun-22 18:24N 45°24' E 036°41'3 7.4
2018-Jun-22 18:00N 45°21' E 036°39'12 3.5
2018-Jun-22 14:39N 45°11' E 036°29'0 0.0
2018-Jun-22 14:30N 45°11' E 036°29'0 0.0
2018-Jun-22 14:00N 45°11' E 036°29'0 0.0
2018-Jun-22 13:30N 45°11' E 036°29'2 0.9
2018-Jun-22 11:21N 45°13' E 036°28'1 0.3
2018-Jun-22 07:11N 45°14' E 036°30'1 2.9
2018-Jun-22 06:58N 45°13' E 036°30'22 7.7
2018-Jun-22 04:05N 44°51' E 036°32'2 7.5
2018-Jun-22 03:52N 44°50' E 036°33'81 7.9
2018-Jun-21 17:41N 43°30' E 036°54'2 8.1
2018-Jun-21 17:24N 43°28' E 036°54'  
2018-Jun-14 05:59N 44°60' E 032°32'8 7.6
2018-Jun-14 04:57N 45°05' E 032°25'3 7.6
2018-Jun-14 04:30N 45°08' E 032°21'4 7.7
2018-Jun-14 04:00N 45°11' E 032°18'4 7.6
2018-Jun-14 03:30N 45°14' E 032°14'4 7.6
2018-Jun-14 03:00N 45°16' E 032°10'4 7.5
2018-Jun-14 02:30N 45°19' E 032°07'4 7.4
2018-Jun-14 01:59N 45°22' E 032°03'4 7.2
2018-Jun-14 01:30N 45°25' E 031°60'4 7.0
2018-Jun-14 00:59N 45°27' E 031°56'4 7.6
2018-Jun-14 00:30N 45°29' E 031°52'4 7.5
2018-Jun-14 00:00N 45°31' E 031°47'4 7.5
2018-Jun-13 23:30N 45°33' E 031°43'4 7.6
2018-Jun-13 23:00N 45°35' E 031°38'4 7.6
2018-Jun-13 22:30N 45°37' E 031°33'4 7.6
2018-Jun-13 22:00N 45°39' E 031°29'4 7.6
2018-Jun-13 21:30N 45°40' E 031°24'4 7.7
2018-Jun-13 21:00N 45°42' E 031°19'4 7.6
2018-Jun-13 20:30N 45°44' E 031°14'4 7.7
2018-Jun-13 19:59N 45°46' E 031°09'4 7.7
2018-Jun-13 19:30N 45°48' E 031°05'4 7.7
2018-Jun-13 19:00N 45°50' E 031°00'4 7.8
2018-Jun-13 18:30N 45°53' E 030°56'6 7.8
2018-Jun-13 17:43N 45°56' E 030°48'2 7.6
2018-Jun-13 17:30N 45°57' E 030°46'4 7.6
2018-Jun-13 17:00N 45°59' E 030°42'4 7.3
2018-Jun-13 16:25N 46°02' E 030°37'3 7.1
2018-Jun-13 16:00N 46°03' E 030°33'4 6.6
2018-Jun-13 15:28N 46°05' E 030°29'  

Dump ship's entire track history